Surface observations / UK / EGOM

Quebec | Canada | USA | France | UK | Europe | Elsewhere

Display: Info & Location for EGOM | Help decoding METAR


Raw surface observations for station EGOM
EGOM 270950Z 10011KT 9999 BKN020 13/08 Q1016 WHT=
EGOM 270850Z 12009KT 9999 BKN018 12/07 Q1017 WHT=
EGOM 270750Z 09006KT 9999 SCT021 11/09 Q1017 WHT=
EGOM 270650Z AUTO 08005KT 9999 BKN022/// 08/07 Q1017=
EGOM 270550Z AUTO 10006KT 9999 SCT021/// 08/06 Q1016=
EGOM 270450Z AUTO 10007KT 9999 BKN022/// 09/06 Q1016=
EGOM 270350Z AUTO 07005KT 9999 OVC021/// 09/08 Q1016=
EGOM 270250Z AUTO 08005KT 9999 OVC020/// 08/08 Q1017=
EGOM 270150Z AUTO 08005KT 9999 BKN023/// 08/08 Q1017=
EGOM 270050Z AUTO 07006KT 9999 OVC023/// 08/08 Q1016=
EGOM 262350Z AUTO 06005KT 9999 BKN022/// 08/08 Q1016=
EGOM 262250Z AUTO 05007KT 9999 FEW005/// BKN023/// 08/07 Q1016=
EGOM 262150Z AUTO 05006KT 9999 NCD 06/06 Q1016=
EGOM 262050Z AUTO 05007KT 9999 NCD 06/06 Q1016=
EGOM 261950Z AUTO 07007KT 9999 NCD 08/06 Q1015=
EGOM 261850Z AUTO 07007KT 9999 NCD 10/06 Q1015=
EGOM 261750Z AUTO 08012KT 9999 NCD 12/06 Q1014=
EGOM 261650Z AUTO 08013KT 9999 FEW027/// 14/06 Q1013=
EGOM 261550Z AUTO 07014KT 9999 FEW028/// 14/06 Q1013=
EGOM 261450Z 08013KT 9999 SCT035 15/07 Q1013 BLU=
EGOM 261350Z 09015KT 9999 BKN031 15/06 Q1013 BLU=
EGOM 261250Z 08016KT 9999 BKN031 14/07 Q1012 BLU=
EGOM 261150Z 07014KT 9999 BKN030 14/08 Q1012 BLU=
EGOM 261050Z 08017KT 9999 SCT030 14/08 Q1012 BLU=
EGOM 260950Z 07016KT 9999 SCT027 12/07 Q1011 BLU=